St-Michel-de-Napierville Airport

CMN3 · Quebec, Kanada

Historia METAR CMN3 · St-Michel-de-Napierville Airport

Poniżej widzisz METAR-y z ostatnich kilku dni. Wybierz rok, aby przeglądać starsze METAR-y, począwszy od roku 2007.

26 maja 2024

Czas Kod Pogoda Temp. Widoczność Sufit Wiatr METAR/SPECI
19:00
V
25 °C 30 mi 25.000 ft 070° 070° 10 kt METAR CYUL 262300Z 07010KT 30SM FEW065 BKN250 25/11 A2991 RMK CU1CI6 CU TR SLP131 DENSITY ALT 1300FT
18:00
V
25 °C 30 mi 25.000 ft 150° 150° 3 kt METAR CYUL 262200Z 15003KT 050V210 30SM FEW060 BKN250 25/11 A2993 RMK CU1CI7 CU TR SLP137 DENSITY ALT 1300FT
17:00
V
25 °C 30 mi 25.000 ft 190° 190° 4 kt METAR CYUL 262100Z 19004KT 150V290 30SM FEW050TCU FEW080 BKN250 25/11 A2994 RMK TCU2AC1CS5 AC TR TCU W-NW SLP140 DENSITY ALT 1300FT
16:00
V
24 °C 30 mi - Var Var 2 kt METAR CYUL 262000Z VRB02KT 30SM FEW050 FEW250 24/11 A2994 RMK CU2CI1 CI TR SLP141 DENSITY ALT 1200FT
15:00
V
24 °C 30 mi - Var Var 2 kt METAR CYUL 261900Z VRB02KT 30SM FEW050 SCT250 24/11 A2993 RMK CU2CI1 SLP138 DENSITY ALT 1200FT
14:00
V
23 °C 30 mi - 240° 240° 7 kt METAR CYUL 261800Z 24007KT 210V300 30SM FEW045 FEW250 23/12 A2994 RMK CU1CI1 SLP139 DENSITY ALT 1100FT
13:00
V
22 °C 30 mi 25.000 ft 210° 210° 7 kt METAR CYUL 261700Z 21007KT 30SM FEW045 BKN250 22/11 A2995 RMK CU1CS7 CU TR CONTRAILS SLP143 DENSITY ALT 1000FT
12:00
V
22 °C 30 mi 25.000 ft 170° 170° 5 kt METAR CYUL 261600Z 17005KT 130V220 30SM FEW045 BKN250 22/12 A2996 RMK CU1CI7 CU TR SLP147 DENSITY ALT 1000FT
11:00
V
21 °C 30 mi - 030° 030° 3 kt METAR CYUL 261500Z 03003KT 340V110 30SM FEW045 SCT250 21/10 A2996 RMK CU1CI3 CU TR SLP146 DENSITY ALT 800FT
10:00
V
19 °C 30 mi - 010° 010° 4 kt METAR CYUL 261400Z 01004KT 300V030 30SM FEW035 FEW250 19/10 A2996 RMK CU1CI1 CU TR CI TR SLP147 DENSITY ALT 600FT
09:00
V
18 °C 30 mi - 310° 310° 4 kt METAR CYUL 261300Z 31004KT 270V340 30SM FEW150 SCT240 18/10 A2997 RMK AC1CI3 AC TR SLP149 DENSITY ALT 500FT
08:00
V
16 °C 30 mi - 270° 270° 4 kt METAR CYUL 261200Z 27004KT 250V330 30SM FEW150 SCT240 16/11 A2995 RMK AC1CI2 SLP143
07:00
V
15 °C 30 mi - 360° 360° 0 kt METAR CYUL 261100Z 00000KT 30SM FEW090 FEW240 15/11 A2993 RMK AC1CI1 CI TR SLP137
06:00
V
14 °C 30 mi - 310° 310° 3 kt METAR CYUL 261000Z 31003KT 30SM FEW050 FEW150 14/11 A2991 RMK SC1AC1 SC TR SLP131
05:00
V
14 °C 15 mi 12.000 ft 360° 360° 0 kt METAR CYUL 260900Z 00000KT 15SM SCT050 BKN120 14/12 A2989 RMK SC3AC2 SLP123
04:00
V
14 °C 15 mi 5.200 ft 330° 330° 2 kt METAR CYUL 260800Z 33002KT 15SM BKN052 14/11 A2989 RMK SC6 SLP124
03:00
V
15 °C 15 mi 5.800 ft 360° 360° 0 kt METAR CYUL 260700Z 00000KT 15SM OVC058 15/11 A2989 RMK SC8 SLP122
02:19
V
15 °C 15 mi 5.000 ft 360° 360° 0 kt METAR CYUL 260619Z 00000KT 15SM OVC050 15/10 A2988 RMK SC8 SLP120
02:00
V
15 °C 15 mi 4.200 ft 360° 360° 0 kt METAR CYUL 260600Z 00000KT 15SM OVC042 15/11 A2988 RMK SC8 INTMT -RA SLP121
01:00
V
16 °C 15 mi 5.000 ft 350° 350° 5 kt METAR CYUL 260500Z 35005KT 15SM -RA OVC050 16/10 A2988 RMK SC8 SLP121 DENSITY ALT 400FT
00:00
V
17 °C 15 mi 7.500 ft 350° 350° 5 kt METAR CYUL 260400Z 35005KT 15SM OVC075 17/09 A2987 RMK AC8 SLP117 DENSITY ALT 500FT

25 maja 2024

Czas Kod Pogoda Temp. Widoczność Sufit Wiatr METAR/SPECI
23:00
V
18 °C 15 mi 6.500 ft 020° 020° 4 kt METAR CYUL 260300Z 02004KT 15SM BKN065 18/09 A2985 RMK SC7 SLP110 DENSITY ALT 600FT
22:33
V
18 °C 15 mi 6.000 ft 020° 020° 5 kt METAR CYUL 260233Z 02005KT 320V030 15SM BKN060 OVC090 18/09 A2985 RMK SC6AC2 SLP110 DENSITY ALT 600FT
22:00
V
18 °C 15 mi 5.500 ft 330° 330° 4 kt METAR CYUL 260200Z 33004KT 15SM -RA OVC055 18/10 A2985 RMK SC8 SLP111 DENSITY ALT 600FT
21:36
V
19 °C 15 mi 7.000 ft 360° 360° 4 kt METAR CYUL 260136Z 36004KT 300V010 15SM -RA SCT053 OVC070 19/08 A2984 RMK SC4AC4 SLP107 DENSITY ALT 700FT
21:00
V
19 °C 15 mi 6.800 ft 310° 310° 4 kt METAR CYUL 260100Z 31004KT 15SM OVC068 19/07 A2984 RMK AC8 SLP105 DENSITY ALT 800FT
20:48
V
19 °C 15 mi 7.000 ft 280° 280° 3 kt METAR CYUL 260048Z 28003KT 250V320 15SM BKN070 OVC090 19/08 A2983 RMK AC7AS1 SLP104 DENSITY ALT 800FT
20:00
V
20 °C 30 mi 9.500 ft 260° 260° 5 kt METAR CYUL 260000Z 26005KT 210V330 30SM -RA SCT075 OVC095 20/08 A2982 RMK AC4AS4 SLP100 DENSITY ALT 800FT
19:00
V
20 °C 30 mi 9.000 ft 250° 250° 5 kt METAR CYUL 252300Z 25005KT 30SM BKN090 OVC110 20/07 A2983 RMK AC6AS2 SLP103 DENSITY ALT 900FT
18:00
V
20 °C 30 mi 12.000 ft 250° 250° 6 kt METAR CYUL 252200Z 25006KT 30SM SCT095 OVC120 OVC250 20/07 A2984 RMK AC4AC3CS1 SLP105 DENSITY ALT 900FT
17:00
V
21 °C 30 mi 11.000 ft 240° 240° 5 kt METAR CYUL 252100Z 24005KT 220V290 30SM BKN110 BKN140 OVC250 21/07 A2983 RMK AC6AC1CS1 SLP104 DENSITY ALT 1000FT
16:00
V
21 °C 30 mi 25.000 ft 220° 220° 9 kt METAR CYUL 252000Z 22009KT 190V250 30SM FEW140 OVC250 21/06 A2984 RMK AC1CS7 SLP105 DENSITY ALT 900FT
15:00
V
21 °C 30 mi 25.000 ft 180° 180° 8 kt METAR CYUL 251900Z 18008KT 30SM FEW055 FEW150 OVC250 21/06 A2985 RMK CU1AC1CS7 CU TR SLP110 DENSITY ALT 1000FT
14:00
V
21 °C 30 mi 25.000 ft 190° 190° 9 kt METAR CYUL 251800Z 19009KT 160V230 30SM FEW055 FEW150 BKN250 21/07 A2986 RMK CU1AC2CI5 CU TR SLP114 DENSITY ALT 900FT
13:00
V
20 °C 30 mi 25.000 ft 200° 200° 8 kt METAR CYUL 251700Z 20008KT 160V250 30SM FEW050 SCT190 OVC250 20/06 A2987 RMK CU1AC3CI5 CU TR SLP118 DENSITY ALT 800FT
12:00
V
19 °C 30 mi 25.000 ft 190° 190° 8 kt METAR CYUL 251600Z 19008KT 180V280 30SM FEW050 FEW220 OVC250 19/07 A2989 RMK CU1CC1CI7 CU TR SLP125 DENSITY ALT 700FT
11:00
V
18 °C 30 mi 25.000 ft 210° 210° 4 kt METAR CYUL 251500Z 21004KT 160V230 30SM FEW050 FEW210 OVC250 18/05 A2989 RMK CU1CC1CI7 CU TR SLP126 DENSITY ALT 600FT
10:00
V
17 °C 30 mi 25.000 ft 360° 360° 0 kt METAR CYUL 251400Z 00000KT 30SM FEW050 OVC250 17/04 A2990 RMK CU1CI8 CU TR CS ASOCTD SLP127 DENSITY ALT 400FT
09:00
V
16 °C 30 mi - Var Var 2 kt METAR CYUL 251300Z VRB02KT 30SM FEW040 SCT250 16/06 A2991 RMK CF1CI3 CF TR SLP131
08:00
V
13 °C 30 mi - 290° 290° 3 kt METAR CYUL 251200Z 29003KT 250V310 30SM SCT250 13/07 A2991 RMK CI3 SLP131
07:00
V
11 °C 30 mi - 310° 310° 3 kt METAR CYUL 251100Z 31003KT 280V010 30SM FEW240 11/06 A2990 RMK CI2 SLP129
06:00
V
10 °C 30 mi - 350° 350° 4 kt METAR CYUL 251000Z 35004KT 30SM FEW240 10/06 A2989 RMK CI2 SLP126
05:00
V
10 °C 30 mi - 360° 360° 3 kt METAR CYUL 250900Z 36003KT 30SM SKC 10/06 A2989 RMK SLP125
04:00
V
11 °C 15 mi - 350° 350° 3 kt METAR CYUL 250800Z 35003KT 15SM SKC 11/06 A2989 RMK SLP124
03:00
V
11 °C 15 mi - 330° 330° 4 kt METAR CYUL 250700Z 33004KT 15SM SKC 11/06 A2989 RMK SLP126
02:00
V
12 °C 15 mi - 360° 360° 4 kt METAR CYUL 250600Z 36004KT 15SM SKC 12/06 A2988 RMK SLP122
01:00
V
13 °C 15 mi - 290° 290° 4 kt METAR CYUL 250500Z 29004KT 15SM SKC 13/06 A2989 RMK SLP124
00:00
V
14 °C 15 mi - 300° 300° 4 kt METAR CYUL 250400Z 30004KT 15SM SKC 14/05 A2988 RMK SLP120

24 maja 2024

Czas Kod Pogoda Temp. Widoczność Sufit Wiatr METAR/SPECI
23:00
V
14 °C 15 mi - 320° 320° 5 kt METAR CYUL 250300Z 32005KT 15SM SKC 14/05 A2987 RMK SLP116
22:00
V
15 °C 15 mi - 320° 320° 5 kt METAR CYUL 250200Z 32005KT 15SM FEW240 15/04 A2986 RMK CI1 CI TR SLP114
21:00
V
16 °C 15 mi - 320° 320° 4 kt METAR CYUL 250100Z 32004KT 300V010 15SM FEW058 FEW250 16/04 A2986 RMK SC1CI1 SC TR CI TR SLP115 DENSITY ALT 400FT
20:00
V
17 °C 30 mi - 330° 330° 9 kt METAR CYUL 250000Z 33009KT 30SM FEW058 FEW250 17/03 A2984 RMK SC1CI1 CI TR SLP108 DENSITY ALT 500FT
19:00
V
18 °C 30 mi - 330° 330° 9 - 16 kt METAR CYUL 242300Z 33009G16KT 30SM SCT058 SCT250 18/03 A2983 RMK SC4CI1 CI TR SLP104 DENSITY ALT 600FT
18:00
V
18 °C 30 mi - 320° 320° 16 kt METAR CYUL 242200Z 32016KT 30SM SCT058 18/03 A2982 RMK SC4 SLP101 DENSITY ALT 700FT
17:00
V
19 °C 30 mi - 330° 330° 11 - 17 kt METAR CYUL 242100Z 33011G17KT 260V350 30SM SCT057 19/04 A2981 RMK SC4 SLP096 DENSITY ALT 800FT
16:00
V
18 °C 30 mi - 310° 310° 13 - 19 kt METAR CYUL 242000Z 31013G19KT 30SM SCT055 SCT250 18/05 A2979 RMK SC4CI1 CI TR SLP091 DENSITY ALT 700FT
15:00
V
19 °C 30 mi - 290° 290° 14 - 22 kt METAR CYUL 241900Z 29014G22KT 250V330 30SM FEW052 FEW250 19/05 A2979 RMK SC2CI1 CI TR SLP089 DENSITY ALT 800FT
14:00
V
18 °C 30 mi - 320° 320° 14 - 19 kt METAR CYUL 241800Z 32014G19KT 270V340 30SM FEW048 FEW250 18/05 A2977 RMK SC2FU1 FU TR SLP082 DENSITY ALT 700FT
13:00
V
18 °C 30 mi - 290° 290° 13 - 23 kt METAR CYUL 241700Z 29013G23KT 270V340 30SM SCT048 SCT100 SCT250 18/05 A2976 RMK SC4AC1CI1 AC TR CI TR SLP078 DENSITY ALT 800FT
12:00
V
18 °C 30 mi - 280° 280° 16 - 22 kt METAR CYUL 241600Z 28016G22KT 30SM FEW048 FEW080 FEW250 18/06 A2974 WS RWY24R RMK SC2AC1CI1 AC TR CI TR SLP072 DENSITY ALT 800FT
11:00
V
19 °C 30 mi 4.800 ft 320° 320° 10 - 22 kt METAR CYUL 241500Z 32010G22KT 270V340 30SM BKN048 BKN080 BKN250 19/07 A2972 RMK SC5AC1CI1 AC TR CI TR SLP065 DENSITY ALT 800FT
10:00
V
19 °C 30 mi 5.000 ft 290° 290° 17 - 29 kt METAR CYUL 241400Z 29017G29KT 30SM BKN050 BKN080 BKN250 19/07 A2970 RMK SC5AC1CI1 AC TR CI TR SLP059 DENSITY ALT 900FT
09:00
V
18 °C 15 mi 24.000 ft 270° 270° 16 - 26 kt METAR CYUL 241300Z 27016G26KT 15SM FEW045 SCT080 BKN240 18/09 A2969 RMK SC2AC2CI2 CU ASOCTD SLP057 DENSITY ALT 700FT
08:21
V
17 °C 15 mi 9.000 ft 260° 260° 12 - 19 kt METAR CYUL 241221Z 26012G19KT 15SM FEW035 BKN090 BKN240 17/10 A2968 RMK CU1AC6CI1 CU TR SLP052 DENSITY ALT 700FT
08:00
V
16 °C 15 mi 7.500 ft 260° 260° 16 - 23 kt METAR CYUL 241200Z 26016G23KT 15SM -SHRA FEW035 BKN075 OVC090 16/10 A2968 RMK CU1AC7AC1 CU TR CVCTV CLD EMBD SLP052 DENSITY ALT 600FT
07:46
V
17 °C 15 mi 6.500 ft 260° 260° 15 - 23 kt METAR CYUL 241146Z 26015G23KT 15SM -SHRA BKN065 OVC080 17/09 A2968 RMK SC6AC2 CVCTV CLD EMBD SLP053 DENSITY ALT 700FT
07:00
V
18 °C 30 mi 18.000 ft 240° 240° 14 kt METAR CYUL 241100Z 24014KT 30SM SCT080 BKN180 BKN230 18/10 A2968 RMK AC4AC1CI2 SLP053 DENSITY ALT 800FT
06:00
V
17 °C 30 mi - 220° 220° 14 kt METAR CYUL 241000Z 22014KT 30SM FEW025 FEW150 FEW240 17/10 A2968 RMK CU1AC1CI1 CU TR SLP051 DENSITY ALT 700FT
05:00
V
16 °C 15 mi - 210° 210° 15 kt METAR CYUL 240900Z 21015KT 15SM FEW010 16/11 A2969 RMK SF1 SF TR SLP055 DENSITY ALT 600FT
04:00
V
17 °C 15 mi - 230° 230° 9 kt METAR CYUL 240800Z 23009KT 15SM SKC 17/11 A2970 RMK SLP060 DENSITY ALT 600FT
03:00
V
18 °C 15 mi - 250° 250° 12 - 18 kt METAR CYUL 240700Z 25012G18KT 15SM SKC 18/10 A2971 RMK SLP064 DENSITY ALT 700FT
02:00
V
18 °C 15 mi - 240° 240° 12 kt METAR CYUL 240600Z 24012KT 15SM SKC 18/10 A2971 RMK SLP062 DENSITY ALT 800FT
Zgłoś zmianę